Lopeno, Texas
Current Conditions -  °F | °C
As of 1:55 PM on Thursday 30 Oct 2014 (Local Time) from KHBV Reporting Station
Scattered Clouds Scattered Clouds  
Wind Chill: 83°   Ceiling: Unl
Heat Index: 84°   Visibility: 10mi
Dew Point: 62°   Wind: 6mph
Humidity: 49%   Direction: 120°ESE
Pressure: 30.07"   Gusts: NA
Location:  26.71°N, 99.11°W
Report Text: KHBV 301855Z AUTO 12005KT 10SM SCT042 28/17 A3007 RMK AO2 T02840166 PWINO
Loading
Personal Weather Stations






























Interactive Weather Map
Tropical Storm Tracking
New forecast layout! Learn more

10-Day Weather Forecast

Advertisements
Track Severe Weather on mobile